createdAt,value
2019-04-25T00:00:32.291Z,100.66
2019-04-25T00:01:33.116Z,101.59
2019-04-25T00:02:33.671Z,101.40
2019-04-25T00:03:34.565Z,101.85
2019-04-25T00:04:34.967Z,101.62
2019-04-25T00:05:36.288Z,102.05
2019-04-25T00:06:34.893Z,102.13
2019-04-25T00:07:37.096Z,102.32
2019-04-25T00:08:35.532Z,102.65
2019-04-25T00:09:37.581Z,101.70
2019-04-25T00:10:36.976Z,101.05
2019-04-25T00:11:37.803Z,101.49
2019-04-25T00:12:37.956Z,101.86
2019-04-25T00:13:38.021Z,101.98
2019-04-25T00:14:38.331Z,101.79
2019-04-25T00:14:46.938Z,101.28
2019-04-25T00:15:48.104Z,101.24
2019-04-25T00:16:47.766Z,100.73
2019-04-25T00:17:49.205Z,101.32
2019-04-25T00:18:49.603Z,101.27
2019-04-25T00:19:51.082Z,101.38
2019-04-25T00:20:49.305Z,100.89
2019-04-25T00:21:51.676Z,101.39
2019-04-25T00:22:51.552Z,100.93
2019-04-25T00:23:51.576Z,100.71
2019-04-25T00:24:52.019Z,99.98
2019-04-25T00:25:52.731Z,99.70
2019-04-25T00:26:53.234Z,100.35
2019-04-25T00:27:53.234Z,99.44
2019-04-25T00:28:53.690Z,99.12
2019-04-25T00:29:55.023Z,99.98
2019-04-25T00:30:55.439Z,99.96
2019-04-25T00:31:55.915Z,99.20
2019-04-25T00:32:56.316Z,99.53
2019-04-25T00:33:56.837Z,100.64
2019-04-25T00:34:57.680Z,100.24
2019-04-25T00:35:58.078Z,100.72
2019-04-25T00:36:58.581Z,101.11
2019-04-25T00:37:59.087Z,100.23
2019-04-25T00:38:59.467Z,101.10
2019-04-25T00:40:01.371Z,100.82
2019-04-25T00:40:59.164Z,100.87
2019-04-25T00:42:02.400Z,100.59
2019-04-25T00:43:01.610Z,100.47
2019-04-25T00:44:02.302Z,100.81
2019-04-25T00:45:02.323Z,100.59
2019-04-25T00:46:01.770Z,101.15
2019-04-25T00:47:03.312Z,101.22
2019-04-25T00:48:04.376Z,100.37
2019-04-25T00:49:02.889Z,100.93
2019-04-25T00:50:04.379Z,100.87
2019-04-25T00:51:04.861Z,101.10
2019-04-25T00:52:05.347Z,101.13
2019-04-25T00:53:05.938Z,101.38
2019-04-25T00:54:06.598Z,101.48
2019-04-25T00:55:07.088Z,101.55
2019-04-25T00:56:07.434Z,101.26
2019-04-25T00:57:08.005Z,101.26
2019-04-25T00:58:08.392Z,101.55
2019-04-25T00:59:08.928Z,100.78
2019-04-25T01:00:09.426Z,100.88
2019-04-25T01:01:11.999Z,101.15
2019-04-25T01:02:11.478Z,101.15
2019-04-25T01:03:11.612Z,101.94
2019-04-25T01:04:12.277Z,102.22
2019-04-25T01:05:11.777Z,102.26
2019-04-25T01:06:13.213Z,102.49
2019-04-25T01:07:13.844Z,102.03
2019-04-25T01:08:14.646Z,102.10
2019-04-25T01:09:15.184Z,101.93
2019-04-25T01:10:15.683Z,102.65
2019-04-25T01:11:16.458Z,102.84
2019-04-25T01:12:17.107Z,102.49
2019-04-25T01:13:17.692Z,102.44
2019-04-25T01:14:18.246Z,102.34
2019-04-25T01:14:27.266Z,101.61
2019-04-25T01:15:29.037Z,101.58
2019-04-25T01:16:29.468Z,102.30
2019-04-25T01:17:31.490Z,102.92
2019-04-25T01:18:29.457Z,102.43
2019-04-25T01:19:30.879Z,102.54
2019-04-25T01:20:31.523Z,102.65
2019-04-25T01:21:32.030Z,102.25
2019-04-25T01:22:34.295Z,102.67
2019-04-25T01:23:33.634Z,102.71
2019-04-25T01:24:33.983Z,102.76
2019-04-25T01:25:41.098Z,103.43
2019-04-25T01:26:33.934Z,103.63
2019-04-25T01:27:34.202Z,103.30
2019-04-25T01:28:35.721Z,103.44
2019-04-25T01:29:36.248Z,103.67
2019-04-25T01:30:36.927Z,104.00
2019-04-25T01:31:37.615Z,103.73
2019-04-25T01:32:38.337Z,103.61
2019-04-25T01:33:38.763Z,103.56
2019-04-25T01:34:39.324Z,103.45
2019-04-25T01:35:39.768Z,103.34
2019-04-25T01:36:40.199Z,102.97
2019-04-25T01:37:40.679Z,102.50
2019-04-25T01:38:41.075Z,102.99
2019-04-25T01:39:41.552Z,103.03
2019-04-25T01:40:43.817Z,102.67
2019-04-25T01:41:41.930Z,102.66
2019-04-25T01:42:43.961Z,102.78
2019-04-25T01:43:43.720Z,102.94
2019-04-25T01:44:44.165Z,102.76
2019-04-25T01:45:44.465Z,102.49
2019-04-25T01:46:46.287Z,102.20
2019-04-25T01:47:48.865Z,101.99
2019-04-25T01:48:46.306Z,101.71
2019-04-25T01:49:46.727Z,101.80
2019-04-25T01:50:49.335Z,101.79
2019-04-25T01:51:48.807Z,102.06
2019-04-25T01:52:48.893Z,101.99
2019-04-25T01:53:49.128Z,101.83
2019-04-25T01:54:49.299Z,102.11
2019-04-25T01:55:55.983Z,102.08
2019-04-25T01:56:50.910Z,102.59
2019-04-25T01:57:50.991Z,102.47
2019-04-25T01:58:53.906Z,102.49
2019-04-25T01:59:53.707Z,102.44
2019-04-25T02:00:54.653Z,102.46
2019-04-25T02:01:54.325Z,102.48
2019-04-25T02:02:54.888Z,102.75
2019-04-25T02:03:54.731Z,102.38
2019-04-25T02:04:56.849Z,102.10
2019-04-25T02:05:55.268Z,101.71
2019-04-25T02:06:55.696Z,101.83
2019-04-25T02:07:55.965Z,101.94
2019-04-25T02:08:57.464Z,101.50
2019-04-25T02:09:57.889Z,101.95
2019-04-25T02:10:58.967Z,102.55
2019-04-25T02:11:58.898Z,102.24
2019-04-25T02:12:59.882Z,101.95
2019-04-25T02:13:59.508Z,100.86
2019-04-25T02:15:00.973Z,100.74
2019-04-25T02:16:01.417Z,100.21
2019-04-25T02:17:02.787Z,100.70
2019-04-25T02:18:01.848Z,100.66
2019-04-25T02:19:03.543Z,100.09
2019-04-25T02:20:04.102Z,99.92
2019-04-25T02:21:04.404Z,99.56
2019-04-25T02:22:04.025Z,99.51
2019-04-25T02:23:04.242Z,99.57
2019-04-25T02:24:05.707Z,100.54
2019-04-25T02:25:04.996Z,100.98
2019-04-25T02:26:15.651Z,101.14
2019-04-25T02:27:06.033Z,100.97
2019-04-25T02:28:07.543Z,100.56
2019-04-25T02:28:16.619Z,100.16
2019-04-25T02:29:18.217Z,100.12
2019-04-25T02:30:18.722Z,100.48
2019-04-25T02:31:19.580Z,100.28
2019-04-25T02:32:20.158Z,99.75
2019-04-25T02:33:20.667Z,100.14
2019-04-25T02:34:21.291Z,100.15
2019-04-25T02:35:21.714Z,100.06
2019-04-25T02:36:21.119Z,100.09
2019-04-25T02:37:25.297Z,99.30
2019-04-25T02:38:24.105Z,99.30
2019-04-25T02:39:24.387Z,99.42
2019-04-25T02:40:23.988Z,99.54
2019-04-25T02:41:24.992Z,99.55
2019-04-25T02:42:24.599Z,99.95
2019-04-25T02:43:24.492Z,99.98
2019-04-25T02:44:25.892Z,100.04
2019-04-25T02:45:26.351Z,100.22
2019-04-25T02:46:26.839Z,99.75
2019-04-25T02:47:27.647Z,100.50
2019-04-25T02:48:28.201Z,100.88
2019-04-25T02:49:35.314Z,100.92
2019-04-25T02:50:28.456Z,101.36
2019-04-25T02:51:30.046Z,101.43
2019-04-25T02:52:30.455Z,101.15
2019-04-25T02:53:30.856Z,101.64
2019-04-25T02:54:31.257Z,102.24
2019-04-25T02:55:36.738Z,102.10
2019-04-25T02:56:34.943Z,101.93
2019-04-25T02:57:31.958Z,102.09
2019-04-25T02:58:34.267Z,102.34
2019-04-25T02:59:34.587Z,101.89
2019-04-25T03:00:47.656Z,101.81
2019-04-25T03:01:34.368Z,102.19
2019-04-25T03:02:36.775Z,101.87
2019-04-25T03:03:35.155Z,102.05
2019-04-25T03:04:36.443Z,102.81
2019-04-25T03:05:47.174Z,103.06
2019-04-25T03:06:36.865Z,102.87
2019-04-25T03:07:37.472Z,102.51
2019-04-25T03:08:37.880Z,102.30
2019-04-25T03:09:39.374Z,101.76
2019-04-25T03:10:39.786Z,101.32
2019-04-25T03:11:40.571Z,101.19
2019-04-25T03:12:39.899Z,101.26
2019-04-25T03:13:41.259Z,101.59
2019-04-25T03:14:41.632Z,101.62
2019-04-25T03:15:44.133Z,101.29
2019-04-25T03:16:41.551Z,101.16
2019-04-25T03:17:44.378Z,100.97
2019-04-25T03:18:44.275Z,101.25
2019-04-25T03:19:44.046Z,101.69
2019-04-25T03:20:45.193Z,101.52
2019-04-25T03:21:45.147Z,101.26
2019-04-25T03:23:11.214Z,101.15
2019-04-25T03:24:16.345Z,101.14
2019-04-25T03:25:14.520Z,100.70
2019-04-25T03:26:13.549Z,100.37
2019-04-25T03:27:14.263Z,100.25
2019-04-25T03:28:15.508Z,100.51
2019-04-25T03:29:14.086Z,100.16
2019-04-25T03:30:17.855Z,100.11
2019-04-25T03:31:22.048Z,99.95
2019-04-25T03:32:19.651Z,100.21
2019-04-25T03:33:19.745Z,100.81
2019-04-25T03:34:20.578Z,100.71
2019-04-25T03:35:17.475Z,100.45
2019-04-25T03:36:19.048Z,100.30
2019-04-25T03:37:19.511Z,100.42
2019-04-25T03:38:19.925Z,100.83
2019-04-25T03:39:20.412Z,101.07
2019-04-25T03:40:20.800Z,101.11
2019-04-25T03:41:21.198Z,101.07
2019-04-25T03:42:21.799Z,100.46
2019-04-25T03:43:23.240Z,100.23
2019-04-25T03:44:21.786Z,100.23
2019-04-25T03:45:23.689Z,99.88
2019-04-25T03:46:23.318Z,99.95
2019-04-25T03:47:23.596Z,100.08
2019-04-25T03:48:25.078Z,100.30
2019-04-25T03:49:23.934Z,100.40
2019-04-25T03:50:24.228Z,99.94
2019-04-25T03:51:25.665Z,99.62
2019-04-25T03:52:26.130Z,99.42
2019-04-25T03:53:26.527Z,99.19
2019-04-25T03:54:27.410Z,98.87
2019-04-25T03:55:27.941Z,99.48
2019-04-25T03:56:28.749Z,99.48
2019-04-25T03:57:29.215Z,99.18
2019-04-25T03:58:29.589Z,99.33
2019-04-25T03:59:30.017Z,98.94
2019-04-25T04:00:30.535Z,99.06
2019-04-25T04:01:31.031Z,98.87
2019-04-25T04:02:31.423Z,99.39
2019-04-25T04:03:31.946Z,99.79
2019-04-25T04:04:33.557Z,100.19
2019-04-25T04:05:31.958Z,100.16
2019-04-25T04:06:34.017Z,100.01
2019-04-25T04:07:33.717Z,99.30
2019-04-25T04:08:34.269Z,98.75
2019-04-25T04:09:33.952Z,99.00
2019-04-25T04:10:35.337Z,99.49
2019-04-25T04:11:35.756Z,99.59
2019-04-25T04:12:36.294Z,99.51
2019-04-25T04:13:36.805Z,99.50
2019-04-25T04:14:37.460Z,99.91
2019-04-25T04:15:37.827Z,99.87
2019-04-25T04:16:38.243Z,100.04
2019-04-25T04:17:38.762Z,100.10
2019-04-25T04:18:39.276Z,99.80
2019-04-25T04:19:39.878Z,100.20
2019-04-25T04:20:40.422Z,100.67
2019-04-25T04:21:40.836Z,100.79
2019-04-25T04:21:49.888Z,100.62
2019-04-25T04:22:51.318Z,100.64
2019-04-25T04:23:52.083Z,100.71
2019-04-25T04:24:53.814Z,100.73
2019-04-25T04:25:53.267Z,100.61
2019-04-25T04:27:03.097Z,100.46
2019-04-25T04:27:53.789Z,100.48
2019-04-25T04:28:53.523Z,100.38
2019-04-25T04:29:55.096Z,100.38
2019-04-25T04:30:55.684Z,100.27
2019-04-25T04:31:56.217Z,99.70
2019-04-25T04:32:55.699Z,100.10
2019-04-25T04:33:57.142Z,100.15
2019-04-25T04:34:57.496Z,100.29
2019-04-25T04:35:57.895Z,100.90
2019-04-25T04:36:58.349Z,100.64
2019-04-25T04:37:58.719Z,100.33
2019-04-25T04:38:59.244Z,99.83
2019-04-25T04:39:59.946Z,100.10
2019-04-25T04:41:00.334Z,100.04
2019-04-25T04:42:00.844Z,100.18
2019-04-25T04:43:01.270Z,100.01
2019-04-25T04:44:01.701Z,99.77
2019-04-25T04:45:03.624Z,99.49
2019-04-25T04:46:01.615Z,100.15
2019-04-25T04:47:03.792Z,99.98
2019-04-25T04:48:03.256Z,98.84
2019-04-25T04:49:03.928Z,98.46
2019-04-25T04:50:03.935Z,98.37
2019-04-25T04:51:04.065Z,98.94
2019-04-25T04:52:06.559Z,99.28
2019-04-25T04:53:05.047Z,99.18
2019-04-25T04:54:06.414Z,99.87
2019-04-25T04:55:09.787Z,99.88
2019-04-25T04:56:06.537Z,100.02
2019-04-25T04:57:18.444Z,100.22
2019-04-25T04:58:07.554Z,99.74
2019-04-25T04:59:09.004Z,99.77
2019-04-25T05:00:10.903Z,99.45
2019-04-25T05:01:08.904Z,99.08
2019-04-25T05:02:10.649Z,99.27
2019-04-25T05:03:10.471Z,99.44
2019-04-25T05:04:10.670Z,99.40
2019-04-25T05:05:12.015Z,99.12
2019-04-25T05:06:11.421Z,99.45
2019-04-25T05:07:14.932Z,99.18
2019-04-25T05:08:12.999Z,99.49
2019-04-25T05:09:15.186Z,99.08
2019-04-25T05:10:16.415Z,99.89
2019-04-25T05:11:15.431Z,99.46
2019-04-25T05:12:15.237Z,99.26
2019-04-25T05:13:16.493Z,98.54
2019-04-25T05:14:16.227Z,99.01
2019-04-25T05:15:16.882Z,99.00
2019-04-25T05:16:17.721Z,99.20
2019-04-25T05:17:17.625Z,99.43
2019-04-25T05:18:31.584Z,99.01
2019-04-25T05:19:18.227Z,98.76
2019-04-25T05:20:20.122Z,99.42
2019-04-25T05:21:19.167Z,99.57
2019-04-25T05:22:20.521Z,98.69
2019-04-25T05:23:21.055Z,95.99
2019-04-25T05:24:21.609Z,95.13
2019-04-25T05:25:24.311Z,94.75
2019-04-25T05:26:21.530Z,93.51
2019-04-25T05:27:36.067Z,92.29
2019-04-25T05:28:24.542Z,91.13
2019-04-25T05:29:24.125Z,88.40
2019-04-25T05:30:23.658Z,86.80
2019-04-25T05:31:25.494Z,85.28
2019-04-25T05:32:25.205Z,80.48
2019-04-25T05:33:25.855Z,80.04
2019-04-25T05:34:25.944Z,78.71
2019-04-25T05:35:25.551Z,76.89
2019-04-25T05:36:25.841Z,73.85
2019-04-25T05:37:27.369Z,72.24
2019-04-25T05:38:27.732Z,71.19
2019-04-25T05:38:36.266Z,69.37
2019-04-25T05:39:37.689Z,69.45
2019-04-25T05:40:38.115Z,67.36
2019-04-25T05:41:38.942Z,66.94
2019-04-25T05:42:39.433Z,66.72
2019-04-25T05:43:39.891Z,65.35
2019-04-25T05:44:40.666Z,67.09
2019-04-25T05:45:41.086Z,66.87
2019-04-25T05:46:41.626Z,66.57
2019-04-25T05:47:42.110Z,66.47
2019-04-25T05:48:43.847Z,65.65
2019-04-25T05:49:42.042Z,66.55
2019-04-25T05:50:43.864Z,66.77
2019-04-25T05:51:44.387Z,67.47
2019-04-25T05:52:45.934Z,69.35
2019-04-25T05:53:47.075Z,69.21
2019-04-25T05:54:45.103Z,69.94
2019-04-25T05:55:46.490Z,69.41
2019-04-25T05:56:46.982Z,71.33
2019-04-25T05:57:50.131Z,72.77
2019-04-25T05:58:47.021Z,72.55
2019-04-25T05:59:48.517Z,73.05
2019-04-25T06:00:48.812Z,74.41
2019-04-25T06:01:49.339Z,75.28
2019-04-25T06:02:49.809Z,74.95
2019-04-25T06:03:50.247Z,75.54
2019-04-25T06:04:50.685Z,77.03
2019-04-25T06:05:51.223Z,77.97
2019-04-25T06:06:53.085Z,78.70
2019-04-25T06:07:51.159Z,79.66
2019-04-25T06:08:54.146Z,79.60
2019-04-25T06:09:52.006Z,80.29
2019-04-25T06:10:53.896Z,78.44
2019-04-25T06:11:53.431Z,75.93
2019-04-25T06:12:53.701Z,74.91
2019-04-25T06:13:53.629Z,74.83
2019-04-25T06:14:55.113Z,71.83
2019-04-25T06:15:55.508Z,71.38
2019-04-25T06:16:56.026Z,70.06
2019-04-25T06:17:56.552Z,70.58
2019-04-25T06:18:57.154Z,68.17
2019-04-25T06:19:57.670Z,67.11
2019-04-25T06:20:58.387Z,65.71
2019-04-25T06:21:58.899Z,65.40
2019-04-25T06:22:59.560Z,63.65
2019-04-25T06:24:00.257Z,63.38
2019-04-25T06:25:00.815Z,62.52
2019-04-25T06:26:16.084Z,63.61
2019-04-25T06:27:01.046Z,62.47
2019-04-25T06:28:03.784Z,61.61
2019-04-25T06:29:03.303Z,61.36
2019-04-25T06:30:04.190Z,61.89
2019-04-25T06:31:04.451Z,61.93
2019-04-25T06:32:08.308Z,62.58
2019-04-25T06:33:03.922Z,62.33
2019-04-25T06:34:05.411Z,64.17
2019-04-25T06:35:05.912Z,64.98
2019-04-25T06:35:14.977Z,65.28
2019-04-25T06:36:16.317Z,65.38
2019-04-25T06:37:17.066Z,65.15
2019-04-25T06:38:17.844Z,65.36
2019-04-25T06:39:18.249Z,66.10
2019-04-25T06:40:19.663Z,68.00
2019-04-25T06:41:18.235Z,69.88
2019-04-25T06:42:21.069Z,69.34
2019-04-25T06:43:19.269Z,69.80
2019-04-25T06:44:20.732Z,71.48
2019-04-25T06:45:19.606Z,71.00
2019-04-25T06:46:21.133Z,69.59
2019-04-25T06:47:21.208Z,70.95
2019-04-25T06:48:21.256Z,70.67
2019-04-25T06:49:24.122Z,71.92
2019-04-25T06:50:23.081Z,68.63
2019-04-25T06:51:25.564Z,68.37
2019-04-25T06:52:29.024Z,65.64
2019-04-25T06:53:25.632Z,64.40
2019-04-25T06:54:25.793Z,64.95
2019-04-25T06:55:26.375Z,62.08
2019-04-25T06:56:26.110Z,60.68
2019-04-25T06:57:27.003Z,59.15
2019-04-25T06:58:27.534Z,59.24
2019-04-25T06:59:28.555Z,58.79
2019-04-25T07:00:28.872Z,54.17
2019-04-25T07:01:28.819Z,54.75
2019-04-25T07:02:28.935Z,52.41
2019-04-25T07:03:29.405Z,50.15
2019-04-25T07:04:29.955Z,49.41
2019-04-25T07:05:35.813Z,49.58
2019-04-25T07:06:31.406Z,48.18
2019-04-25T07:07:31.903Z,47.96
2019-04-25T07:08:35.176Z,50.37
2019-04-25T07:09:34.902Z,54.68
2019-04-25T07:10:34.011Z,56.08
2019-04-25T07:11:34.876Z,56.14
2019-04-25T07:12:35.987Z,56.79
2019-04-25T07:13:38.592Z,54.91
2019-04-25T07:14:36.847Z,54.86
2019-04-25T07:15:36.038Z,53.84
2019-04-25T07:16:37.783Z,53.12
2019-04-25T07:17:38.613Z,54.17
2019-04-25T07:18:39.233Z,55.46
2019-04-25T07:19:39.721Z,54.92
2019-04-25T07:20:40.286Z,56.71
2019-04-25T07:21:40.905Z,57.14
2019-04-25T07:22:40.170Z,55.46
2019-04-25T07:23:43.509Z,54.82
2019-04-25T07:24:41.480Z,53.41
2019-04-25T07:25:41.888Z,52.81
2019-04-25T07:26:44.201Z,53.41
2019-04-25T07:27:43.173Z,55.17
2019-04-25T07:28:44.003Z,55.21
2019-04-25T07:29:43.929Z,55.71
2019-04-25T07:30:51.458Z,56.78
2019-04-25T07:31:45.386Z,57.64
2019-04-25T07:32:46.886Z,60.21
2019-04-25T07:33:47.416Z,59.80
2019-04-25T07:34:48.104Z,60.31
2019-04-25T07:35:48.568Z,61.61
2019-04-25T07:36:48.999Z,62.35
2019-04-25T07:37:49.421Z,64.21
2019-04-25T07:38:49.922Z,66.81
2019-04-25T07:39:50.409Z,68.42
2019-04-25T07:40:51.051Z,67.57
2019-04-25T07:41:51.724Z,67.60
2019-04-25T07:42:53.602Z,69.72
2019-04-25T07:43:53.294Z,68.67
2019-04-25T07:44:54.917Z,71.15
2019-04-25T07:45:53.574Z,75.44
2019-04-25T07:46:54.329Z,72.26
2019-04-25T07:47:54.287Z,73.70
2019-04-25T07:48:54.738Z,74.20
2019-04-25T07:49:56.231Z,74.55
2019-04-25T07:50:55.834Z,76.43
2019-04-25T07:51:57.223Z,76.92
2019-04-25T07:52:57.642Z,77.38
2019-04-25T07:53:09.713Z,79.99
2019-04-25T07:54:11.281Z,80.10
2019-04-25T07:55:11.594Z,79.01
2019-04-25T07:56:11.784Z,78.71
2019-04-25T07:57:13.557Z,79.09
2019-04-25T07:58:12.233Z,80.49
2019-04-25T07:59:14.025Z,80.76
2019-04-25T08:00:13.563Z,82.40
2019-04-25T08:01:15.345Z,82.52
2019-04-25T08:02:15.782Z,83.00
2019-04-25T08:03:16.236Z,84.47
2019-04-25T08:04:16.841Z,84.31
2019-04-25T08:05:16.935Z,83.93
2019-04-25T08:06:17.135Z,83.05
2019-04-25T08:07:17.823Z,80.34
2019-04-25T08:08:18.634Z,79.64
2019-04-25T08:09:18.123Z,77.14
2019-04-25T08:10:19.687Z,77.27
2019-04-25T08:11:20.355Z,77.96
2019-04-25T08:12:20.949Z,76.60
2019-04-25T08:13:21.397Z,77.23
2019-04-25T08:14:21.747Z,78.62
2019-04-25T08:15:23.626Z,77.91
2019-04-25T08:16:23.251Z,76.76
2019-04-25T08:17:23.980Z,76.70
2019-04-25T08:18:25.240Z,76.06
2019-04-25T08:19:23.631Z,76.98
2019-04-25T08:20:23.720Z,76.77
2019-04-25T08:21:24.125Z,77.04
2019-04-25T08:22:28.333Z,76.33
2019-04-25T08:23:25.169Z,76.56
2019-04-25T08:24:26.596Z,75.29
2019-04-25T08:25:27.329Z,75.38
2019-04-25T08:26:26.730Z,75.79
2019-04-25T08:27:27.853Z,76.13
2019-04-25T08:28:27.944Z,76.52
2019-04-25T08:29:30.792Z,76.00
2019-04-25T08:30:27.986Z,76.48
2019-04-25T08:31:31.087Z,77.10
2019-04-25T08:32:30.860Z,77.00
2019-04-25T08:33:29.972Z,78.46
2019-04-25T08:34:32.825Z,77.98
2019-04-25T08:35:31.704Z,76.36
2019-04-25T08:36:35.529Z,75.60
2019-04-25T08:37:34.131Z,76.45
2019-04-25T08:38:34.671Z,76.33
2019-04-25T08:39:34.126Z,77.39
2019-04-25T08:40:35.993Z,77.91
2019-04-25T08:41:35.842Z,76.04
2019-04-25T08:42:35.847Z,76.19
2019-04-25T08:43:37.743Z,75.58
2019-04-25T08:44:36.892Z,75.66
2019-04-25T08:45:37.408Z,75.54
2019-04-25T08:46:38.411Z,76.63
2019-04-25T08:47:38.381Z,76.01
2019-04-25T08:48:40.188Z,75.07
2019-04-25T08:49:40.460Z,74.95
2019-04-25T08:50:42.288Z,75.12
2019-04-25T08:51:42.050Z,75.41
2019-04-25T08:52:42.844Z,75.23
2019-04-25T08:53:44.937Z,72.57
2019-04-25T08:54:47.206Z,73.22
2019-04-25T08:55:44.380Z,74.42
2019-04-25T08:56:44.120Z,73.27
2019-04-25T08:57:44.643Z,73.49
2019-04-25T08:58:45.704Z,73.24
2019-04-25T08:59:52.226Z,72.70
2019-04-25T09:00:57.837Z,72.98
2019-04-25T09:01:46.021Z,72.64
2019-04-25T09:02:47.457Z,69.27
2019-04-25T09:03:48.410Z,69.83
2019-04-25T09:03:56.972Z,70.65
2019-04-25T09:04:58.131Z,70.51
2019-04-25T09:05:58.784Z,69.03
2019-04-25T09:06:58.115Z,69.22
2019-04-25T09:07:59.517Z,69.83
2019-04-25T09:09:00.300Z,68.66
2019-04-25T09:10:00.328Z,67.42
2019-04-25T09:11:00.854Z,67.69
2019-04-25T09:12:00.365Z,64.45
2019-04-25T09:13:03.178Z,65.35
2019-04-25T09:14:01.585Z,65.09
2019-04-25T09:15:04.143Z,66.93
2019-04-25T09:16:03.612Z,66.60
2019-04-25T09:17:03.294Z,65.67
2019-04-25T09:18:04.035Z,65.44
2019-04-25T09:19:04.722Z,65.18
2019-04-25T09:20:04.649Z,63.44
2019-04-25T09:21:06.489Z,64.14
2019-04-25T09:22:07.130Z,63.44
2019-04-25T09:23:07.624Z,61.83
2019-04-25T09:24:08.259Z,64.35
2019-04-25T09:25:08.857Z,63.24
2019-04-25T09:26:09.327Z,62.40
2019-04-25T09:27:09.777Z,62.41
2019-04-25T09:28:10.163Z,61.25
2019-04-25T09:29:18.806Z,61.83
2019-04-25T09:30:10.213Z,61.72
2019-04-25T09:31:13.816Z,61.34
2019-04-25T09:32:11.600Z,59.70
2019-04-25T09:33:13.350Z,59.47
2019-04-25T09:34:14.005Z,59.58
2019-04-25T09:35:13.707Z,57.67
2019-04-25T09:36:14.158Z,58.71
2019-04-25T09:37:14.346Z,57.58
2019-04-25T09:38:14.894Z,59.30
2019-04-25T09:39:16.383Z,58.65
2019-04-25T09:40:16.820Z,56.80
2019-04-25T09:41:17.698Z,57.55
2019-04-25T09:42:18.112Z,58.11
2019-04-25T09:43:18.481Z,57.39
2019-04-25T09:44:18.961Z,54.76
2019-04-25T09:45:19.386Z,56.34
2019-04-25T09:46:20.014Z,57.38
2019-04-25T09:47:20.467Z,57.58
2019-04-25T09:48:20.904Z,55.00
2019-04-25T09:49:21.659Z,55.12
2019-04-25T09:50:23.719Z,56.17
2019-04-25T09:51:23.461Z,56.25
2019-04-25T09:52:22.441Z,55.60
2019-04-25T09:53:23.908Z,56.45
2019-04-25T09:54:23.881Z,56.20
2019-04-25T09:55:24.311Z,56.12
2019-04-25T09:56:25.035Z,56.35
2019-04-25T09:57:25.610Z,55.63
2019-04-25T09:58:26.383Z,55.35
2019-04-25T09:59:29.849Z,55.65
2019-04-25T10:00:27.214Z,55.10
2019-04-25T10:01:28.808Z,57.52
2019-04-25T10:02:29.371Z,57.21
2019-04-25T10:03:29.976Z,56.85
2019-04-25T10:04:30.464Z,57.03
2019-04-25T10:04:39.215Z,57.20
2019-04-25T10:05:40.413Z,56.95
2019-04-25T10:06:40.806Z,57.48
2019-04-25T10:07:43.512Z,58.97
2019-04-25T10:08:44.759Z,58.99
2019-04-25T10:09:44.590Z,59.07
2019-04-25T10:10:43.145Z,58.85
2019-04-25T10:11:45.451Z,57.60
2019-04-25T10:12:44.313Z,57.35
2019-04-25T10:13:44.860Z,58.42
2019-04-25T10:14:47.534Z,58.48
2019-04-25T10:15:45.722Z,58.96
2019-04-25T10:16:47.325Z,59.60
2019-04-25T10:17:46.755Z,59.19
2019-04-25T10:18:47.813Z,59.15
2019-04-25T10:19:48.215Z,59.87
2019-04-25T10:20:49.487Z,59.82
2019-04-25T10:21:48.098Z,60.03
2019-04-25T10:22:49.538Z,58.72
2019-04-25T10:23:51.259Z,59.25
2019-04-25T10:24:58.872Z,59.52
2019-04-25T10:25:50.213Z,59.30
2019-04-25T10:26:53.025Z,58.73
2019-04-25T10:27:51.992Z,58.96
2019-04-25T10:28:51.995Z,59.13
2019-04-25T10:29:57.093Z,56.33
2019-04-25T10:30:55.296Z,56.78
2019-04-25T10:31:55.316Z,56.93
2019-04-25T10:32:54.767Z,57.73
2019-04-25T10:33:54.931Z,58.08
2019-04-25T10:34:55.298Z,58.46
2019-04-25T10:35:59.393Z,58.18
2019-04-25T10:36:56.733Z,56.99
2019-04-25T10:37:56.709Z,58.75
2019-04-25T10:39:07.172Z,57.61
2019-04-25T10:39:57.290Z,57.67
2019-04-25T10:40:58.922Z,57.39
2019-04-25T10:41:58.556Z,57.82
2019-04-25T10:43:00.423Z,57.04
2019-04-25T10:44:00.820Z,56.90
2019-04-25T10:45:01.474Z,57.06
2019-04-25T10:46:03.471Z,55.03
2019-04-25T10:47:01.256Z,55.85
2019-04-25T10:48:04.193Z,55.84
2019-04-25T10:49:04.043Z,55.65
2019-04-25T10:50:03.837Z,55.55
2019-04-25T10:51:04.151Z,53.66
2019-04-25T10:52:03.429Z,55.09
2019-04-25T10:53:05.017Z,55.10
2019-04-25T10:54:05.781Z,56.16
2019-04-25T10:55:06.337Z,55.54
2019-04-25T10:56:07.031Z,54.92
2019-04-25T10:57:06.700Z,54.42
2019-04-25T10:58:06.864Z,54.03
2019-04-25T10:59:08.255Z,53.75
2019-04-25T11:00:09.581Z,54.05
2019-04-25T11:01:08.324Z,52.65
2019-04-25T11:02:09.767Z,53.84
2019-04-25T11:03:10.393Z,53.57
2019-04-25T11:04:10.869Z,53.83
2019-04-25T11:05:11.412Z,52.00
2019-04-25T11:06:11.825Z,51.68
2019-04-25T11:07:13.667Z,51.48
2019-04-25T11:08:13.640Z,51.75
2019-04-25T11:09:13.642Z,52.34
2019-04-25T11:10:14.023Z,52.44
2019-04-25T11:11:13.894Z,50.72
2019-04-25T11:12:13.945Z,51.13
2019-04-25T11:13:14.433Z,51.08
2019-04-25T11:14:14.961Z,51.11
2019-04-25T11:15:16.460Z,51.53
2019-04-25T11:16:16.486Z,51.80
2019-04-25T11:17:17.211Z,52.56
2019-04-25T11:18:18.190Z,51.61
2019-04-25T11:19:18.648Z,52.72
2019-04-25T11:19:27.217Z,52.06
2019-04-25T11:20:29.187Z,52.07
2019-04-25T11:21:29.696Z,51.78
2019-04-25T11:22:30.448Z,50.70
2019-04-25T11:23:31.035Z,51.34
2019-04-25T11:24:31.526Z,52.11
2019-04-25T11:25:34.077Z,51.97
2019-04-25T11:26:34.440Z,52.31
2019-04-25T11:27:32.123Z,52.21
2019-04-25T11:28:33.888Z,53.46
2019-04-25T11:29:34.197Z,53.66
2019-04-25T11:30:34.051Z,53.49
2019-04-25T11:31:35.674Z,53.64
2019-04-25T11:32:36.072Z,53.87
2019-04-25T11:33:36.591Z,53.61
2019-04-25T11:34:37.098Z,52.29
2019-04-25T11:35:37.098Z,53.12
2019-04-25T11:36:37.756Z,52.20
2019-04-25T11:37:38.566Z,54.53
2019-04-25T11:38:39.452Z,53.50
2019-04-25T11:39:40.326Z,52.87
2019-04-25T11:40:43.588Z,52.66
2019-04-25T11:41:40.617Z,52.43
2019-04-25T11:42:43.212Z,53.19
2019-04-25T11:43:43.497Z,50.49
2019-04-25T11:44:45.259Z,52.06
2019-04-25T11:45:43.206Z,51.88
2019-04-25T11:46:45.799Z,50.05
2019-04-25T11:47:46.954Z,52.52
2019-04-25T11:48:46.307Z,52.12
2019-04-25T11:49:47.441Z,50.32
2019-04-25T11:50:49.902Z,50.51
2019-04-25T11:51:46.816Z,51.42
2019-04-25T11:52:48.711Z,51.71
2019-04-25T11:53:49.546Z,49.37
2019-04-25T11:54:50.146Z,48.67
2019-04-25T11:55:50.211Z,49.36
2019-04-25T11:56:50.745Z,50.05
2019-04-25T11:57:52.393Z,49.63
2019-04-25T11:58:51.192Z,49.29
2019-04-25T11:59:54.612Z,50.53
2019-04-25T12:00:54.138Z,50.05
2019-04-25T12:01:56.066Z,50.42
2019-04-25T12:02:54.959Z,51.45
2019-04-25T12:03:55.167Z,50.75
2019-04-25T12:04:55.230Z,50.57
2019-04-25T12:05:55.130Z,50.55
2019-04-25T12:06:56.688Z,49.88
2019-04-25T12:07:57.291Z,49.12
2019-04-25T12:08:57.444Z,48.47
2019-04-25T12:09:58.394Z,49.63
2019-04-25T12:10:58.934Z,49.76
2019-04-25T12:11:59.593Z,50.77
2019-04-25T12:12:59.292Z,50.62
2019-04-25T12:13:59.809Z,50.70
2019-04-25T12:15:01.633Z,49.92
2019-04-25T12:16:02.227Z,50.43
2019-04-25T12:17:03.826Z,50.39
2019-04-25T12:18:02.109Z,50.22
2019-04-25T12:19:04.763Z,49.91
2019-04-25T12:20:03.863Z,50.65
2019-04-25T12:21:04.265Z,50.94
2019-04-25T12:22:04.181Z,51.11
2019-04-25T12:23:10.239Z,51.35
2019-04-25T12:24:05.859Z,51.64
2019-04-25T12:25:05.457Z,51.26
2019-04-25T12:26:07.065Z,51.25
2019-04-25T12:27:07.480Z,51.07
2019-04-25T12:28:08.204Z,51.06
2019-04-25T12:28:16.731Z,51.21
2019-04-25T12:29:18.575Z,51.23
2019-04-25T12:30:18.950Z,51.55
2019-04-25T12:31:19.571Z,49.92
2019-04-25T12:32:20.020Z,49.78
2019-04-25T12:33:21.460Z,50.38
2019-04-25T12:34:20.163Z,50.26
2019-04-25T12:35:21.748Z,50.56
2019-04-25T12:36:23.989Z,50.61
2019-04-25T12:37:23.255Z,50.18
2019-04-25T12:38:24.585Z,50.23
2019-04-25T12:39:24.282Z,50.46
2019-04-25T12:40:24.359Z,50.30
2019-04-25T12:41:24.228Z,49.70
2019-04-25T12:42:25.963Z,49.99
2019-04-25T12:43:26.208Z,50.30